Time;durP1;ratioP1;P1;durP2;ratioP2;P2;SDS_P1;SDS_P2;PMS_P1;PMS_P2;Temp;Humidity;BMP_temperature;BMP_pressure;BME280_temperature;BME280_humidity;BME280_pressure;Samples;Min_cycle;Max_cycle;Signal;HPM_P1;HPM_P2
2022/02/28 00:01:14;;;;;;;6.32;5.72;;;;;;;5.87;45.93;101721.38;10315505;28;20056;-63
2022/02/28 00:06:15;;;;;;;5.05;4.55;;;;;;;5.86;45.94;101725.81;10315801;28;20058;-62
2022/02/28 00:11:17;;;;;;;6.15;5.47;;;;;;;5.84;47.49;101717.09;10316858;28;20596;-62
2022/02/28 00:16:18;;;;;;;6.65;4.65;;;;;;;5.72;48.33;101725.47;10318798;28;20129;-61
2022/02/28 00:21:19;;;;;;;7.78;5.50;;;;;;;5.77;47.89;101732.31;10320847;28;20056;-61
2022/02/28 00:26:21;;;;;;;6.03;5.18;;;;;;;5.71;47.48;101726.41;10315893;28;20064;-60
2022/02/28 00:31:22;;;;;;;7.50;5.93;;;;;;;5.64;47.31;101720.47;10329397;28;20064;-60
2022/02/28 00:36:26;;;;;;;6.15;5.10;;;;;;;5.74;48.35;101736.84;10314267;28;20058;-60
2022/02/28 00:41:27;;;;;;;6.70;4.85;;;;;;;5.60;48.37;101756.72;10325971;28;20141;-61
2022/02/28 00:46:28;;;;;;;5.40;4.90;;;;;;;5.61;48.56;101758.41;10317042;28;20077;-60
2022/02/28 00:51:30;;;;;;;8.88;7.25;;;;;;;5.37;47.90;101740.81;10312527;28;20612;-61
2022/02/28 00:56:31;;;;;;;9.10;6.50;;;;;;;5.25;48.70;101758.78;10316064;28;20049;-60
2022/02/28 01:01:35;;;;;;;8.55;6.70;;;;;;;5.18;49.19;101749.38;10317192;28;20145;-64
2022/02/28 01:06:37;;;;;;;10.57;8.43;;;;;;;4.95;49.64;101731.66;10316472;28;20054;-62
2022/02/28 01:11:39;;;;;;;7.78;6.97;;;;;;;4.93;49.92;101734.34;10318894;28;20058;-63
2022/02/28 01:16:40;;;;;;;9.02;8.00;;;;;;;4.77;50.31;101706.72;10310830;28;20176;-62
2022/02/28 01:21:42;;;;;;;8.00;6.78;;;;;;;4.80;49.99;101713.69;10311884;28;20090;-62
2022/02/28 01:26:45;;;;;;;10.68;8.05;;;;;;;4.83;49.90;101706.53;10311500;28;20568;-62
2022/02/28 01:31:46;;;;;;;9.52;8.05;;;;;;;4.92;49.81;101694.81;10311584;28;20066;-63
2022/02/28 01:36:48;;;;;;;7.72;6.35;;;;;;;5.07;49.90;101703.97;10323098;28;20584;-63
2022/02/28 01:41:49;;;;;;;8.65;6.78;;;;;;;5.00;49.63;101707.75;10313859;28;20053;-63
2022/02/28 01:46:51;;;;;;;8.98;7.45;;;;;;;4.93;49.86;101707.94;10314384;28;20453;-62
2022/02/28 01:51:53;;;;;;;7.45;6.70;;;;;;;4.89;50.16;101708.97;10313201;28;20427;-62
2022/02/28 01:56:54;;;;;;;8.07;7.30;;;;;;;4.68;50.13;101681.50;10312682;28;20578;-62
2022/02/28 02:01:56;;;;;;;9.70;7.40;;;;;;;4.81;50.39;101704.88;10313074;28;20271;-63
2022/02/28 02:06:57;;;;;;;8.70;7.72;;;;;;;4.73;50.03;101695.44;10310747;28;20054;-63
2022/02/28 02:11:59;;;;;;;9.52;8.57;;;;;;;4.73;50.27;101691.94;10314769;28;20057;-61
2022/02/28 02:17:00;;;;;;;8.23;6.70;;;;;;;4.73;50.24;101699.84;10311389;28;20063;-63
2022/02/28 02:22:04;;;;;;;9.10;7.43;;;;;;;4.55;50.50;101686.34;10315354;28;20125;-62
2022/02/28 02:27:05;;;;;;;7.95;7.03;;;;;;;4.57;50.45;101699.47;10314614;28;20669;-63
2022/02/28 02:32:14;;;;;;;9.73;7.78;;;;;;;4.58;50.26;101702.06;10311608;28;20113;-62
2022/02/28 02:37:16;;;;;;;9.35;7.28;;;;;;;4.55;50.49;101696.91;10311252;28;20085;-63
2022/02/28 02:42:17;;;;;;;8.63;7.57;;;;;;;4.48;50.09;101698.00;10309452;28;20111;-62
2022/02/28 02:47:18;;;;;;;9.20;7.55;;;;;;;4.50;49.91;101712.00;10307120;28;20053;-62
2022/02/28 02:52:20;;;;;;;7.88;6.95;;;;;;;4.56;49.59;101698.63;10303168;28;20536;-62
2022/02/28 02:57:21;;;;;;;8.48;7.57;;;;;;;4.41;50.11;101688.56;10319852;28;20512;-62
2022/02/28 03:02:22;;;;;;;8.25;7.38;;;;;;;4.38;50.08;101712.38;10310505;28;21168;-62
2022/02/28 03:07:24;;;;;;;8.60;7.43;;;;;;;4.43;50.41;101697.28;10314488;28;20763;-62
2022/02/28 03:12:27;;;;;;;8.85;7.65;;;;;;;4.38;50.78;101699.19;10310484;28;20077;-63
2022/02/28 03:17:29;;;;;;;9.52;7.18;;;;;;;4.34;50.76;101700.19;10314743;28;20054;-62
2022/02/28 03:22:30;;;;;;;8.50;7.60;;;;;;;4.17;51.12;101685.75;10312075;28;20113;-63
2022/02/28 03:27:32;;;;;;;8.50;7.70;;;;;;;4.23;51.21;101701.41;10309824;28;20138;-62
2022/02/28 03:32:34;;;;;;;8.82;7.50;;;;;;;4.19;51.30;101699.78;10311457;28;20157;-61
2022/02/28 03:37:35;;;;;;;10.13;8.07;;;;;;;4.01;51.59;101681.91;10311167;28;20037;-62
2022/02/28 03:42:37;;;;;;;10.07;8.23;;;;;;;3.98;51.62;101671.44;10309131;28;20074;-62
2022/02/28 03:47:39;;;;;;;9.40;7.50;;;;;;;3.99;52.08;101691.59;10314025;28;20058;-62
2022/02/28 03:52:40;;;;;;;8.65;7.43;;;;;;;4.01;52.12;101676.63;10315587;28;20054;-62
2022/02/28 03:57:42;;;;;;;7.80;6.97;;;;;;;4.05;51.85;101687.03;10320451;28;20734;-62
2022/02/28 04:02:44;;;;;;;9.55;7.68;;;;;;;4.17;51.39;101684.91;10316542;28;20120;-61
2022/02/28 04:07:47;;;;;;;8.40;7.22;;;;;;;4.09;51.49;101671.97;10316167;28;20065;-62
2022/02/28 04:12:49;;;;;;;8.75;7.85;;;;;;;3.98;51.70;101666.16;10318109;28;20089;-60
2022/02/28 04:17:50;;;;;;;8.07;7.15;;;;;;;4.10;51.55;101678.97;10322513;28;20060;-62
2022/02/28 04:22:52;;;;;;;10.02;7.60;;;;;;;4.04;51.58;101668.63;10315640;28;20054;-63
2022/02/28 04:27:53;;;;;;;9.63;7.50;;;;;;;4.13;51.54;101673.63;10315609;28;20149;-61
2022/02/28 04:32:54;;;;;;;8.73;7.32;;;;;;;4.04;51.47;101664.22;10318556;28;20049;-62
2022/02/28 04:37:56;;;;;;;9.13;7.72;;;;;;;3.94;51.80;101667.19;10314588;28;20096;-61
2022/02/28 04:42:57;;;;;;;7.80;7.03;;;;;;;3.84;52.06;101651.66;10313374;28;20050;-62
2022/02/28 04:47:59;;;;;;;7.63;6.70;;;;;;;3.78;52.19;101643.91;10313093;28;20096;-62
2022/02/28 04:53:00;;;;;;;7.80;7.00;;;;;;;3.80;52.08;101663.19;10317035;28;20133;-62
2022/02/28 04:58:02;;;;;;;7.78;7.00;;;;;;;3.72;52.25;101670.44;10311922;28;20145;-61
2022/02/28 05:03:03;;;;;;;8.27;7.03;;;;;;;3.80;52.18;101681.63;10315092;28;20065;-61
2022/02/28 05:08:05;;;;;;;8.68;7.50;;;;;;;3.75;52.62;101678.25;10316748;28;20064;-61
2022/02/28 05:13:06;;;;;;;7.85;6.85;;;;;;;3.76;52.29;101681.75;10319546;28;20130;-62
2022/02/28 05:18:07;;;;;;;7.63;6.78;;;;;;;3.67;52.64;101664.44;10315699;28;20058;-63
2022/02/28 05:23:09;;;;;;;8.27;6.90;;;;;;;3.70;52.25;101670.47;10317747;28;20133;-64
2022/02/28 05:28:10;;;;;;;8.35;6.95;;;;;;;3.50;52.15;101657.91;10314185;28;20124;-61
2022/02/28 05:33:12;;;;;;;9.32;7.70;;;;;;;3.61;52.40;101680.44;10314570;28;20536;-60
2022/02/28 05:38:13;;;;;;;8.25;7.35;;;;;;;3.68;52.08;101676.72;10316074;28;20046;-61
2022/02/28 05:43:14;;;;;;;8.38;7.55;;;;;;;3.82;51.92;101690.34;10311850;28;20557;-61
2022/02/28 05:48:16;;;;;;;8.57;7.45;;;;;;;3.77;52.24;101701.91;10314333;28;20042;-61
2022/02/28 05:53:17;;;;;;;8.90;7.95;;;;;;;3.32;52.60;101658.44;10319396;28;20038;-61
2022/02/28 05:58:19;;;;;;;8.38;7.57;;;;;;;3.51;52.99;101701.75;10305666;28;20623;-61
2022/02/28 06:03:20;;;;;;;9.48;7.72;;;;;;;3.44;52.79;101710.72;10295265;28;20054;-61
2022/02/28 06:08:23;;;;;;;10.25;8.35;;;;;;;3.45;53.05;101728.25;10309256;28;20097;-63
2022/02/28 06:13:24;;;;;;;11.63;9.02;;;;;;;3.45;53.19;101719.47;10307252;28;20190;-62
2022/02/28 06:18:26;;;;;;;10.85;8.40;;;;;;;3.32;53.43;101700.53;10307570;28;20068;-62
2022/02/28 06:23:28;;;;;;;11.70;8.32;;;;;;;3.30;53.50;101702.34;10308865;28;20049;-63
2022/02/28 06:28:32;;;;;;;11.98;9.73;;;;;;;3.32;53.37;101701.41;10306286;28;20068;-63
2022/02/28 06:33:33;;;;;;;10.65;8.65;;;;;;;3.44;53.90;101725.63;10307455;28;20046;-63
2022/02/28 06:38:35;;;;;;;11.27;8.15;;;;;;;3.52;53.39;101719.25;10310334;28;20058;-64
2022/02/28 06:43:36;;;;;;;9.73;8.40;;;;;;;3.53;53.29;101735.94;10307210;28;20510;-62
2022/02/28 06:48:38;;;;;;;11.15;8.77;;;;;;;3.61;52.89;101730.47;10298650;28;20136;-61
2022/02/28 06:53:45;;;;;;;11.50;8.80;;;;;;;3.69;52.86;101747.78;10297950;28;20056;-64
2022/02/28 06:58:47;;;;;;;11.60;8.93;;;;;;;3.80;52.94;101760.66;10302057;28;20119;-63
2022/02/28 07:03:48;;;;;;;11.38;9.90;;;;;;;3.92;52.84;101766.47;10302997;28;20076;-61
2022/02/28 07:08:50;;;;;;;10.35;8.40;;;;;;;4.01;52.29;101750.41;10306290;28;20061;-65
2022/02/28 07:13:53;;;;;;;11.15;8.95;;;;;;;4.03;51.89;101752.06;10307992;28;20493;-62
2022/02/28 07:18:55;;;;;;;10.05;8.38;;;;;;;4.27;51.92;101760.16;10335860;28;20053;-62
2022/02/28 07:23:57;;;;;;;12.70;9.00;;;;;;;4.31;51.34;101742.47;10350918;28;20144;-64
2022/02/28 07:28:59;;;;;;;12.32;9.13;;;;;;;4.48;51.23;101758.66;10342725;28;20143;-60
2022/02/28 07:34:09;;;;;;;13.55;9.48;;;;;;;4.66;51.12;101766.91;10318979;28;20053;-62
2022/02/28 07:39:11;;;;;;;9.90;7.85;;;;;;;4.79;50.38;101768.25;10315654;28;20060;-61
2022/02/28 07:44:16;;;;;;;9.15;8.25;;;;;;;4.46;50.89;101768.41;10318917;28;20052;-61
2022/02/28 07:49:17;;;;;;;12.32;8.02;;;;;;;4.73;50.66;101773.72;10313654;28;20046;-61
2022/02/28 07:54:19;;;;;;;9.13;8.18;;;;;;;5.12;49.42;101760.13;10309736;28;20256;-63
2022/02/28 07:59:20;;;;;;;11.15;8.65;;;;;;;5.48;48.13;101763.28;10311848;28;20133;-61
2022/02/28 08:04:21;;;;;;;9.35;8.20;;;;;;;5.84;47.52;101784.03;10307586;28;20614;-61
2022/02/28 08:09:24;;;;;;;10.52;8.07;;;;;;;6.01;46.47;101783.44;10310540;28;20050;-61
2022/02/28 08:14:26;;;;;;;10.07;8.80;;;;;;;6.25;46.20;101791.38;10303718;28;20826;-61
2022/02/28 08:19:27;;;;;;;10.70;8.60;;;;;;;6.39;45.27;101787.34;10310654;28;20100;-61
2022/02/28 08:24:29;;;;;;;11.55;9.43;;;;;;;6.56;45.00;101790.22;10301912;28;20084;-62
2022/02/28 08:29:30;;;;;;;10.85;9.70;;;;;;;6.51;45.32;101793.00;10313609;28;20505;-62
2022/02/28 08:34:31;;;;;;;11.93;10.45;;;;;;;6.72;44.91;101793.97;10313328;28;20050;-63
2022/02/28 08:39:33;;;;;;;9.82;8.82;;;;;;;6.88;44.56;101774.81;10307596;28;20050;-62
2022/02/28 08:44:34;;;;;;;12.68;9.45;;;;;;;7.13;43.46;101781.72;10310331;28;21595;-66
2022/02/28 08:49:36;;;;;;;11.07;9.60;;;;;;;7.40;42.89;101777.94;10310287;28;20140;-61
2022/02/28 08:54:37;;;;;;;10.52;9.52;;;;;;;7.37;42.71;101779.84;10311369;28;20048;-62
2022/02/28 08:59:38;;;;;;;10.73;9.70;;;;;;;7.66;41.92;101789.19;10325048;28;20182;-61
2022/02/28 09:04:40;;;;;;;11.25;8.63;;;;;;;7.88;41.48;101793.53;10336471;28;20164;-60
2022/02/28 09:09:42;;;;;;;15.10;11.27;;;;;;;8.30;41.00;101776.59;10331189;28;20057;-61
2022/02/28 09:14:43;;;;;;;10.63;9.52;;;;;;;8.54;39.99;101779.06;10311252;28;20079;-63
2022/02/28 09:19:44;;;;;;;10.50;9.50;;;;;;;8.75;38.84;101716.97;10304928;28;20054;-59
2022/02/28 09:24:46;;;;;;;11.35;9.45;;;;;;;9.19;38.53;101788.25;10308239;28;20050;-61
2022/02/28 09:29:49;;;;;;;11.73;9.18;;;;;;;9.73;37.88;101785.50;10308596;28;20125;-60
2022/02/28 09:34:51;;;;;;;11.07;9.40;;;;;;;10.16;36.75;101777.00;10308101;28;20200;-61
2022/02/28 09:39:52;;;;;;;13.75;10.07;;;;;;;10.63;36.37;101774.50;10310753;28;20050;-62
2022/02/28 09:44:55;;;;;;;9.85;8.85;;;;;;;11.02;35.12;101771.38;10306494;28;20137;-61
2022/02/28 09:49:57;;;;;;;11.05;9.90;;;;;;;11.43;34.16;101769.88;10314835;28;20050;-60
2022/02/28 09:54:58;;;;;;;14.88;9.73;;;;;;;11.25;35.16;101758.50;10301079;28;20057;-61
2022/02/28 10:00:00;;;;;;;11.55;9.95;;;;;;;11.42;34.23;101760.13;10308544;28;20056;-62
2022/02/28 10:05:03;;;;;;;12.30;8.80;;;;;;;12.49;33.25;101749.94;10303547;28;20635;-61
2022/02/28 10:10:10;;;;;;;10.32;9.18;;;;;;;13.60;30.84;101773.78;10302956;28;20146;-65
2022/02/28 10:15:18;;;;;;;10.05;8.98;;;;;;;16.21;27.66;101768.75;10312660;28;20042;-62
2022/02/28 10:20:21;;;;;;;10.55;9.48;;;;;;;19.46;23.38;101762.19;10298863;28;20164;-63
2022/02/28 10:25:27;;;;;;;9.98;8.82;;;;;;;20.36;21.44;101749.91;10316104;28;20053;-63
2022/02/28 10:30:30;;;;;;;12.05;9.05;;;;;;;19.83;21.65;101756.00;10319505;28;20107;-61
2022/02/28 10:36:00;;;;;;;8.50;7.80;;;;;;;18.50;22.97;101749.38;10315554;28;20556;-61
2022/02/28 10:41:04;;;;;;;9.95;9.02;;;;;;;18.28;23.71;101748.59;10300725;28;20061;-61
2022/02/28 10:46:18;;;;;;;11.60;8.75;;;;;;;19.49;22.02;101746.56;10307477;28;20054;-61
2022/02/28 10:51:20;;;;;;;10.02;9.02;;;;;;;22.63;18.62;101740.16;10306006;28;20050;-62
2022/02/28 10:56:22;;;;;;;8.13;7.43;;;;;;;25.20;15.85;101737.22;10337302;28;20624;-61
2022/02/28 11:01:23;;;;;;;9.20;8.35;;;;;;;26.52;14.20;101732.16;10339713;28;20045;-62
2022/02/28 11:06:25;;;;;;;8.70;7.90;;;;;;;27.89;13.54;101730.13;10346292;28;20049;-62
2022/02/28 11:11:27;;;;;;;8.25;7.55;;;;;;;28.37;12.60;101730.13;10343623;28;20401;-62
2022/02/28 11:16:30;;;;;;;;;;;;;;;29.17;12.11;101707.47;10344511;28;20152;-65
2022/02/28 11:21:38;;;;;;;8.98;8.05;;;;;;;29.34;12.12;101717.00;10346394;28;19928;-64
2022/02/28 11:26:39;;;;;;;8.23;7.20;;;;;;;30.12;11.44;101712.56;10342255;28;20054;-64
2022/02/28 11:31:41;;;;;;;;;;;;;;;30.39;11.17;101717.91;10340388;28;20104;-62
2022/02/28 11:36:46;;;;;;;7.28;6.68;;;;;;;30.93;10.73;101694.50;10344638;28;19929;-62
2022/02/28 11:41:48;;;;;;;8.15;7.22;;;;;;;32.01;10.15;101695.06;10342005;28;20052;-63
2022/02/28 11:47:02;;;;;;;7.53;6.78;;;;;;;32.54;9.69;101689.91;10347007;28;20049;-60
2022/02/28 11:52:36;;;;;;;7.00;6.40;;;;;;;32.83;9.35;101663.34;10344321;28;20068;-61
2022/02/28 11:57:55;;;;;;;7.10;6.50;;;;;;;32.36;9.47;101679.78;10349249;28;20046;-63
2022/02/28 12:02:59;;;;;;;7.20;6.50;;;;;;;32.78;9.23;101675.09;10339701;28;20161;-61
2022/02/28 12:08:01;;;;;;;6.97;6.38;;;;;;;32.81;9.31;101660.00;10311078;28;20079;-61
2022/02/28 12:13:05;;;;;;;7.32;6.28;;;;;;;34.06;8.63;101670.75;10307925;28;20068;-62
2022/02/28 12:18:09;;;;;;;6.47;5.82;;;;;;;34.80;8.14;101658.84;10310557;28;20057;-62
2022/02/28 12:23:13;;;;;;;6.68;6.07;;;;;;;34.70;8.17;101664.19;10315154;28;20052;-63
2022/02/28 12:28:23;;;;;;;6.07;5.43;;;;;;;33.95;8.04;101652.31;10307830;28;20123;-64
2022/02/28 12:33:34;;;;;;;6.72;5.38;;;;;;;35.68;7.42;101647.06;10313630;28;20187;-64
2022/02/28 12:38:39;;;;;;;6.82;6.13;;;;;;;35.77;7.36;101641.06;10312849;28;20131;-64
2022/02/28 12:43:42;;;;;;;6.45;5.85;;;;;;;34.98;7.71;101626.47;10311362;28;20721;-63
2022/02/28 12:48:45;;;;;;;6.78;6.07;;;;;;;35.69;8.03;101628.53;10316351;28;20047;-63
2022/02/28 12:53:47;;;;;;;7.63;6.40;;;;;;;36.19;7.24;101624.63;10308640;28;20056;-63
2022/02/28 12:58:53;;;;;;;6.57;5.82;;;;;;;36.71;7.56;101623.16;10310294;28;20054;-65
2022/02/28 13:03:57;;;;;;;5.95;5.45;;;;;;;36.39;7.76;101612.94;10313607;28;20046;-64
2022/02/28 13:09:05;;;;;;;6.47;5.88;;;;;;;36.05;6.93;101612.31;10314863;28;20779;-64
2022/02/28 13:14:08;;;;;;;6.20;5.70;;;;;;;35.91;7.01;101596.13;10307924;28;20189;-63
2022/02/28 13:19:15;;;;;;;5.93;5.43;;;;;;;37.32;6.60;101600.50;10304660;28;20544;-63
2022/02/28 13:24:19;;;;;;;6.00;5.50;;;;;;;36.25;6.82;101584.78;10307276;28;20100;-62
2022/02/28 13:29:23;;;;;;;6.65;5.45;;;;;;;36.05;6.82;101581.84;10311633;28;20041;-62
2022/02/28 13:34:28;;;;;;;5.55;5.05;;;;;;;36.18;6.58;101562.00;10308299;28;20056;-62
2022/02/28 13:39:33;;;;;;;5.68;5.13;;;;;;;36.50;6.74;101566.72;10314109;28;20129;-63
2022/02/28 13:44:37;;;;;;;6.05;5.55;;;;;;;36.89;6.27;101562.81;10304662;28;20104;-64
2022/02/28 13:49:41;;;;;;;4.78;4.43;;;;;;;36.44;6.50;101554.75;10308747;28;20623;-64
2022/02/28 13:54:57;;;;;;;5.47;4.97;;;;;;;35.72;6.55;101550.47;10306020;28;20054;-63
2022/02/28 14:00:20;;;;;;;5.57;5.10;;;;;;;36.07;6.88;101551.94;10309408;28;20130;-64
2022/02/28 14:05:25;;;;;;;7.57;6.03;;;;;;;36.14;6.86;101547.00;10337306;28;20056;-62
2022/02/28 14:10:30;;;;;;;5.72;5.15;;;;;;;36.15;7.04;101532.03;10336456;28;20128;-62
2022/02/28 14:15:31;;;;;;;6.45;5.10;;;;;;;36.23;6.92;101544.59;10344757;28;20175;-62
2022/02/28 14:20:40;;;;;;;6.30;5.80;;;;;;;35.19;7.38;101531.59;10339634;28;20500;-63
2022/02/28 14:25:47;;;;;;;5.53;5.13;;;;;;;35.42;7.44;101526.91;10332496;28;20053;-64
2022/02/28 14:31:06;;;;;;;5.55;5.05;;;;;;;35.65;7.47;101524.91;10336951;28;20060;-63
2022/02/28 14:36:10;;;;;;;6.05;4.72;;;;;;;35.40;7.53;101523.53;10339310;28;20060;-65
2022/02/28 14:41:12;;;;;;;5.05;4.65;;;;;;;35.22;7.95;101525.53;10339780;28;20490;-64
2022/02/28 14:46:16;;;;;;;6.00;5.40;;;;;;;35.05;7.81;101522.00;10341218;28;20146;-63
2022/02/28 14:51:18;;;;;;;5.75;5.28;;;;;;;34.21;8.15;101525.72;10338661;28;20057;-63
2022/02/28 14:56:20;;;;;;;6.22;5.72;;;;;;;34.22;8.45;101524.63;10337857;28;20539;-64
2022/02/28 15:01:21;;;;;;;4.82;4.35;;;;;;;31.48;9.66;101501.22;10334081;28;20049;-64
2022/02/28 15:06:23;;;;;;;5.97;5.45;;;;;;;29.96;10.68;101516.28;10338177;28;20037;-62
2022/02/28 15:11:25;;;;;;;6.03;5.53;;;;;;;26.65;12.98;101522.03;10318446;28;20061;-62
2022/02/28 15:16:26;;;;;;;6.35;5.75;;;;;;;22.90;15.86;101502.81;10338988;28;20050;-60
2022/02/28 15:21:28;;;;;;;;;;;;;;;20.83;18.19;101508.91;10338319;28;20071;-61
2022/02/28 15:26:30;;;;;;;6.78;6.18;;;;;;;19.69;20.02;101508.78;10339295;28;19925;-64
2022/02/28 15:31:31;;;;;;;7.30;6.55;;;;;;;18.73;20.60;101512.63;10339192;28;20462;-63
2022/02/28 15:36:33;;;;;;;6.70;6.10;;;;;;;17.83;21.11;101499.38;10337855;28;20065;-62
2022/02/28 15:41:34;;;;;;;6.28;5.72;;;;;;;17.03;21.30;101468.03;10339207;28;20076;-61
2022/02/28 15:46:35;;;;;;;6.38;5.78;;;;;;;16.86;22.13;101509.81;10341462;28;20424;-61
2022/02/28 15:51:37;;;;;;;6.30;5.78;;;;;;;16.33;22.56;101497.34;10345648;28;20061;-62
2022/02/28 15:56:38;;;;;;;5.32;4.82;;;;;;;16.11;22.79;101504.53;10347028;28;20118;-64
2022/02/28 16:01:40;;;;;;;5.70;5.05;;;;;;;15.77;22.56;101507.31;10345285;28;20140;-60
2022/02/28 16:06:42;;;;;;;5.38;4.55;;;;;;;15.36;23.15;101501.69;10345973;28;20190;-60
2022/02/28 16:11:43;;;;;;;5.88;5.10;;;;;;;15.17;23.16;101480.84;10344291;28;20056;-61
2022/02/28 16:16:45;;;;;;;7.43;4.75;;;;;;;15.03;23.05;101491.84;10352550;28;20053;-62
2022/02/28 16:21:47;;;;;;;6.70;5.35;;;;;;;14.70;24.57;101488.19;10345333;28;20064;-62
2022/02/28 16:26:48;;;;;;;7.10;6.10;;;;;;;14.44;26.09;101493.72;10345389;28;20263;-63
2022/02/28 16:31:50;;;;;;;7.32;6.45;;;;;;;14.15;26.90;101461.97;10355664;28;20215;-62
2022/02/28 16:36:52;;;;;;;7.65;6.88;;;;;;;13.97;27.75;101477.59;10349592;28;20060;-62
2022/02/28 16:41:54;;;;;;;7.68;6.70;;;;;;;13.73;28.25;101464.25;10345451;28;20139;-62
2022/02/28 16:46:56;;;;;;;8.02;6.47;;;;;;;13.64;28.79;101480.97;10343560;28;20049;-61
2022/02/28 16:51:58;;;;;;;7.03;6.32;;;;;;;13.47;28.89;101482.22;10344667;28;20053;-62
2022/02/28 16:56:59;;;;;;;8.82;6.93;;;;;;;13.12;29.25;101468.72;10342713;28;20084;-62
2022/02/28 17:02:01;;;;;;;6.68;6.00;;;;;;;13.06;29.38;101470.88;10342492;28;20048;-62
2022/02/28 17:07:02;;;;;;;8.35;6.40;;;;;;;12.88;29.78;101478.38;10341511;28;20100;-62
2022/02/28 17:12:07;;;;;;;7.70;6.22;;;;;;;12.79;30.10;101484.38;10339673;28;20207;-61
2022/02/28 17:17:09;;;;;;;7.30;6.60;;;;;;;12.48;30.35;101466.97;10340680;28;20259;-65
2022/02/28 17:22:11;;;;;;;9.10;6.57;;;;;;;12.37;30.90;101478.41;10342504;28;20132;-61
2022/02/28 17:27:12;;;;;;;9.10;7.53;;;;;;;12.22;31.36;101471.41;10342724;28;20049;-61
2022/02/28 17:32:14;;;;;;;9.85;7.47;;;;;;;12.13;31.50;101487.09;10340211;28;20049;-60
2022/02/28 17:37:15;;;;;;;7.10;6.40;;;;;;;12.05;31.13;101499.25;10344253;28;20060;-63
2022/02/28 17:42:17;;;;;;;7.80;6.55;;;;;;;11.76;31.07;101488.66;10340969;28;20050;-61
2022/02/28 17:47:18;;;;;;;8.23;6.80;;;;;;;11.80;30.58;101500.81;10340753;28;20069;-60
2022/02/28 17:52:21;;;;;;;8.00;7.05;;;;;;;11.57;29.47;101497.84;10344332;28;20136;-60
2022/02/28 17:57:22;;;;;;;10.20;8.10;;;;;;;11.40;28.55;101488.28;10341469;28;20257;-60
2022/02/28 18:02:27;;;;;;;8.10;6.82;;;;;;;11.36;29.10;101496.59;10341909;28;20523;-60
2022/02/28 18:07:29;;;;;;;9.27;8.30;;;;;;;11.23;28.24;101509.81;10314483;28;20058;-60
2022/02/28 18:12:30;;;;;;;8.70;7.90;;;;;;;11.17;28.91;101508.44;10309866;28;20069;-61
2022/02/28 18:17:32;;;;;;;8.93;7.88;;;;;;;11.10;29.46;101507.09;10307555;28;20159;-60
2022/02/28 18:22:33;;;;;;;9.63;8.63;;;;;;;11.02;29.37;101512.03;10331447;28;20053;-60
2022/02/28 18:27:36;;;;;;;10.65;9.70;;;;;;;10.92;29.63;101503.78;10342399;28;20050;-60
2022/02/28 18:32:48;;;;;;;11.88;10.65;;;;;;;10.77;29.69;101516.22;10339758;28;20054;-60
2022/02/28 18:37:55;;;;;;;12.40;8.50;;;;;;;10.67;29.64;101521.25;10343453;28;20140;-60
2022/02/28 18:42:57;;;;;;;8.65;7.75;;;;;;;10.60;29.86;101519.91;10341719;28;20054;-61
2022/02/28 18:47:59;;;;;;;9.93;8.70;;;;;;;10.65;30.61;101514.31;10341668;28;20064;-60
2022/02/28 18:53:01;;;;;;;8.90;8.05;;;;;;;10.59;31.02;101511.06;10344921;28;21344;-62
2022/02/28 18:58:04;;;;;;;8.27;7.47;;;;;;;10.44;30.32;101519.97;10339116;28;20471;-64
2022/02/28 19:03:06;;;;;;;8.45;7.57;;;;;;;10.19;30.68;101502.78;10340910;28;20053;-67
2022/02/28 19:08:07;;;;;;;9.48;8.18;;;;;;;10.13;30.79;101523.56;10345249;28;20054;-64
2022/02/28 19:13:08;;;;;;;7.97;6.97;;;;;;;10.04;30.73;101524.94;10339115;28;20045;-64
2022/02/28 19:18:10;;;;;;;8.65;7.35;;;;;;;9.90;30.52;101526.59;10344857;28;20558;-64
2022/02/28 19:23:19;;;;;;;8.43;7.43;;;;;;;9.81;30.41;101527.13;10347241;28;20038;-64
2022/02/28 19:28:20;;;;;;;8.27;7.25;;;;;;;9.80;30.40;101525.41;10347734;28;20051;-64
2022/02/28 19:33:27;;;;;;;8.55;7.68;;;;;;;9.62;30.83;101521.13;10349459;28;20045;-63
2022/02/28 19:38:30;;;;;;;8.60;7.68;;;;;;;9.49;30.61;101510.34;10347836;28;20060;-64
2022/02/28 19:43:32;;;;;;;7.43;6.72;;;;;;;9.52;30.56;101534.94;10346914;28;20113;-63
2022/02/28 19:48:40;;;;;;;8.63;7.47;;;;;;;9.58;31.03;101539.06;10347790;28;20777;-64
2022/02/28 19:53:42;;;;;;;8.32;6.88;;;;;;;9.45;31.63;101530.06;10349413;28;20056;-64
2022/02/28 19:59:03;;;;;;;12.10;7.53;;;;;;;9.43;31.45;101532.81;10352532;28;20045;-63
2022/02/28 20:04:04;;;;;;;7.57;6.78;;;;;;;9.35;31.67;101540.31;10350412;28;20068;-62
2022/02/28 20:09:06;;;;;;;8.52;7.50;;;;;;;9.33;31.95;101536.91;10350241;28;20316;-64
2022/02/28 20:14:08;;;;;;;9.43;7.63;;;;;;;9.23;33.07;101530.38;10346831;28;20424;-64
2022/02/28 20:19:09;;;;;;;10.02;7.93;;;;;;;9.18;33.39;101539.44;10344209;28;20102;-64
2022/02/28 20:24:11;;;;;;;10.23;8.38;;;;;;;9.08;33.39;101532.91;10346208;28;20136;-65
2022/02/28 20:29:13;;;;;;;10.50;8.05;;;;;;;8.99;33.63;101531.63;10344751;28;20049;-65
2022/02/28 20:34:15;;;;;;;10.00;7.97;;;;;;;8.96;33.29;101538.88;10345055;28;20127;-65
2022/02/28 20:39:19;;;;;;;8.90;7.95;;;;;;;8.78;33.65;101509.72;10345055;28;20064;-64
2022/02/28 20:44:21;;;;;;;8.85;8.05;;;;;;;8.79;33.88;101537.97;10342158;28;20109;-65
2022/02/28 20:49:22;;;;;;;8.20;7.40;;;;;;;8.78;33.79;101546.91;10346388;28;20045;-65
2022/02/28 20:54:24;;;;;;;9.75;8.85;;;;;;;8.69;33.39;101534.09;10345982;28;20300;-65
2022/02/28 20:59:25;;;;;;;10.63;8.60;;;;;;;8.67;33.26;101546.59;10347455;28;20049;-65
2022/02/28 21:04:27;;;;;;;9.75;7.95;;;;;;;8.65;33.60;101541.38;10353846;28;20391;-64
2022/02/28 21:09:28;;;;;;;9.10;7.50;;;;;;;8.62;33.55;101535.38;10342761;28;20057;-63
2022/02/28 21:14:30;;;;;;;10.27;9.20;;;;;;;8.58;33.71;101533.81;10343753;28;20053;-61
2022/02/28 21:19:31;;;;;;;9.57;8.32;;;;;;;8.48;34.02;101547.56;10347268;28;20478;-61
2022/02/28 21:24:33;;;;;;;12.65;8.93;;;;;;;8.36;34.28;101542.84;10343351;28;20777;-60
2022/02/28 21:29:34;;;;;;;9.32;8.43;;;;;;;8.31;34.32;101536.88;10344181;28;20060;-63
2022/02/28 21:34:35;;;;;;;10.40;8.23;;;;;;;8.18;34.60;101504.84;10342357;28;20042;-62
2022/02/28 21:39:37;;;;;;;11.02;9.02;;;;;;;8.25;34.63;101531.91;10345002;28;20121;-62
2022/02/28 21:44:39;;;;;;;9.88;7.30;;;;;;;8.12;34.26;101521.03;10345998;28;20068;-66
2022/02/28 21:49:41;;;;;;;8.55;7.63;;;;;;;8.02;34.81;101519.78;10352470;28;20065;-64
2022/02/28 21:54:43;;;;;;;8.98;7.88;;;;;;;8.02;35.34;101531.25;10353324;28;20543;-65
2022/02/28 21:59:44;;;;;;;10.85;8.65;;;;;;;7.90;36.88;101539.81;10349552;28;20203;-64
2022/02/28 22:05:00;;;;;;;9.80;8.60;;;;;;;7.82;35.72;101534.88;10317086;28;20466;-65
2022/02/28 22:10:02;;;;;;;8.93;8.02;;;;;;;7.71;36.42;101532.72;10312150;28;20520;-65
2022/02/28 22:15:05;;;;;;;9.40;7.72;;;;;;;7.54;37.56;101530.06;10306043;28;20069;-66
2022/02/28 22:20:08;;;;;;;10.60;8.77;;;;;;;7.42;37.57;101516.44;10310105;28;20426;-64
2022/02/28 22:25:10;;;;;;;10.55;8.68;;;;;;;7.48;37.94;101536.50;10316359;28;20252;-64
2022/02/28 22:30:12;;;;;;;10.30;9.18;;;;;;;6.95;38.46;101524.81;10307273;28;20632;-65
2022/02/28 22:35:14;;;;;;;10.60;8.93;;;;;;;6.78;39.87;101540.56;10312873;28;20050;-65
2022/02/28 22:40:16;;;;;;;10.50;8.57;;;;;;;6.87;39.87;101548.09;10309251;28;20568;-64
2022/02/28 22:45:17;;;;;;;10.57;9.27;;;;;;;6.83;39.73;101543.84;10321581;28;20407;-64
2022/02/28 22:50:19;;;;;;;10.52;9.43;;;;;;;6.72;39.97;101529.34;10306185;28;20597;-65
2022/02/28 22:55:20;;;;;;;9.88;8.85;;;;;;;6.57;39.89;101543.22;10317277;28;20068;-64
2022/02/28 23:00:22;;;;;;;11.50;9.15;;;;;;;6.50;40.38;101539.97;10317626;28;20230;-64
2022/02/28 23:05:23;;;;;;;10.95;9.85;;;;;;;6.51;40.07;101543.47;10317647;28;20056;-65
2022/02/28 23:21:04;;;;;;;11.50;9.50;;;;;;;6.32;40.21;101530.16;10331702;28;20105;-64
2022/02/28 23:26:05;;;;;;;9.07;8.10;;;;;;;6.40;40.15;101541.28;10318977;28;20107;-65
2022/02/28 23:31:07;;;;;;;10.73;8.82;;;;;;;6.20;40.22;101531.56;10320179;28;20089;-64